首页
METAR-TAF:

METAR-TAF

机场 :

雷克雅維克, 冰岛

纬度: 64-08N, 经度: 021-54W, 海拔: 54米

当前天气观测

该预报发布于43分钟前的01:00 UTC
风速3节,风向东转东南
温度 -8°C
湿度 73%
气压 994 hPa
能见度10公里或以上
1500米以下无云,无积雨云

METAR: BIRK 190100Z 11003KT CAVOK M08/M12 Q0994

时间: 01:43 (01:43 UTC)

预报

该预报发布于3小时和10分钟前的22:33 UTC
预报有效从19日的 00点(UTC)到 19日的 24点(UTC)
风速7节,风向
能见度10公里或以上
1500米以下无云,无积雨云
成为
从 19日的 21点(UTC)到 19日的 24点(UTC)
风速15节,风向北转东北
能见度10公里或以上
少量云层高于2500英尺

TAF: BIRK 182233Z 1900/1924 09007KT CAVOK TXM05/1915Z TNM09/1903Z BECMG 1921/1924 02015KT 9999 FEW025

超过4000个机场的气象观测和天气预报(METAR&TAF报告)。

可查询的气象台以黄色和红色小点在地图上表示。

将鼠标移到小点上方,可查看气象台名称。

然后点击查看天气观测和预报。

如需切换地图:点击带黑十字的绿色按钮放大地图;点击带横线的绿色按钮缩小地图;或者点击绿色箭头查看邻近地区的地图。


METAR-TAF: